Ellesmere Port, United Kingdom
Current Conditions -  °F | °C
As of 1:20 AM on Wednesday 22 Oct 2014 (Local Time) from EGGP Reporting Station
Few Clouds Few Clouds  
Wind Chill: 50°   Ceiling: Unl
Heat Index: 50°   Visibility: 6mi
Dew Point: 41°   Wind: 25mph
Humidity: 71%   Direction: 290°WNW
Pressure: 30.12"   Gusts: NA
Location:  53.28°N, 2.9°W
Report Text: EGGP 220020Z 29022KT 9999 FEW030 10/05 Q1020
Loading
Personal Weather Stations






























Interactive Weather Map
Tropical Storm Tracking
New forecast layout! Learn more

10-Day Weather Forecast

Advertisements
Track Severe Weather on mobile